Terminal Aerodrome Forecast
Issued by NWS Lake Charles, LA

Home | Current Version | Previous Version | Text Only | Print | Product List | Glossary On
Versions: 1 2 3 4 5 6 7 8 9 10 11 12 13 14 15
000
FTUS44 KLCH 251120
TAFLFT
TAF
KLFT 251120Z 2512/2612 27006KT 6SM -RA BR VCTS BKN035CB
     FM251300 18006KT P6SM BKN050
     FM251400 19010G15KT P6SM VCTS BKN025CB
      TEMPO 2514/2516 3SM -TSRA BKN015CB
     FM251600 23014G20KT P6SM SKC
     FM260000 VRB05KT P6SM SKC=

USA.gov is the U.S. government's official web portal to all federal, state and local government web resources and services.